Tiempo atmosférico en la estación meteorológica de Mora, Toledo (717 m.)



Fecha
DESCASC
Temp. máxima en grados centígrados (hora)
DESCASC
Temp. mínima en grados centígrados (hora)
DESCASC
Temp. media en grados centígrados
DESCASC
Racha de viento máxima en m/sg (hora)
DESCASC
Velocidad máxima media en intervalos de 10 minutos(hora)
DESCASC
Precipitaciones diarias en mm
DESCASC
Precipitaciones de 00:00 a 06:00 en mm
DESCASC
Precipitaciones de 06:00 a 12:00 en mm
DESCASC
Precipitaciones de 12:00 a 18:00 en mm
DESCASC
Precipitaciones de 18:00 a 24:00 en mm
DESCASC
20-09-2018 32.2 (15:50) 18.4 (07:20) 25.3 8.06 (20:50) 5 (20:50) 0 0 0 0 0
19-09-2018 30.8 (17:30) 15.4 (07:30) 23.1 5.28 (13:40) 2.78 (01:40) 0 0 0 0 0
18-09-2018 29.6 (17:00) 16.6 (08:10) 23.1 6.94 (16:50) 3.61 (18:00) 0 0 0 0 0
17-09-2018 30.6 (16:10) 18.4 (08:00) 24.5 13.33 (19:30) 6.39 (19:30) 0 0 0 0 0
16-09-2018 30.9 (17:40) 16.1 (00:00) 23.5 6.94 (02:10) 4.17 (01:10) 0 0 0 0 0
15-09-2018 28.8 (15:40) 19 (00:00) 23.9 8.61 (22:10) 4.72 (22:00) 1.2 0.2 1 0 0
14-09-2018 32.5 (16:40) 17.6 (00:00) 25.1 13.61 (20:40) 4.44 (20:40) 1 0 0 0 1
13-09-2018 32.2 (17:50) 16.6 (00:00) 24.4 7.22 (17:20) 3.06 (15:20) 0 0 0 0 0
12-09-2018 30.6 (18:50) 17.6 (00:00) 24.1 8.33 (00:20) 3.61 (00:10) 0 0 0 0 0
11-09-2018 28.4 (17:00) 17.1 (00:00) 22.8 9.72 (23:30) 5.28 (23:20) 0 0 0 0 0
10-09-2018 28 (17:30) 14.4 (00:00) 21.2 12.22 (19:20) 6.11 (19:30) 3 0 0.2 0 2.8
09-09-2018 26.9 (15:10) 13.7 (00:00) 20.3 7.5 (17:10) 5 (17:10) 0 0 0 0 0
08-09-2018 26.5 (13:20) 17.6 (00:00) 22.1 13.89 (15:10) 6.11 (15:10) 2.6 0 0 2.4 0.2
07-09-2018 30.5 (18:20) 13.7 (00:00) 22.1 7.78 (14:20) 3.61 (14:10) 0 0 0 0 0
06-09-2018 27.9 (17:30) 15.7 (00:00) 21.8 8.61 (17:40) 3.89 (17:50) 0 0 0 0 0
05-09-2018 28.6 (18:10) 16.4 (00:00) 22.5 8.33 (19:00) 4.72 (19:00) 0 0 0 0 0
04-09-2018 30.9 (17:00) 17.1 (00:00) 24 6.39 (18:50) 3.61 (19:10) 0 0 0 0 0
03-09-2018 32.7 (16:50) 23.2 (00:00) 28 10 (12:00) 5.56 (17:30) 0 0 0 0 0
02-09-2018 35.8 (17:20) 20.1 (00:00) 27.9 8.33 (16:20) 4.17 (16:30) 0 0 0 0 0
01-09-2018 34.6 (17:20) 19.6 (00:00) 27.1 7.78 (17:30) 3.33 (01:50) 0 0 0 0 0
31-08-2018 34.1 (17:50) 19.6 (00:00) 26.8 6.67 (18:00) 3.61 (18:20) 0 0 0 0 0
30-08-2018 34.1 (18:20) 20 (00:00) 27 7.22 (05:10) 3.89 (06:20) 0 0 0 0 0
29-08-2018 31.8 (19:00) 20.4 (00:00) 26.1 7.5 (16:20) 3.89 (19:40) 0 0 0 0 0
28-08-2018 34.4 (17:20) 23.7 (00:00) 29.1 11.11 (14:10) 5.83 (16:50) 0 0 0 0 0
27-08-2018 36.9 (16:40) 18.5 (00:00) 27.7 7.5 (23:50) 3.89 (17:10) 0 0 0 0 0
26-08-2018 34.1 (18:40) 14.8 (00:00) 24.4 8.06 (16:10) 3.89 (17:10) 0 0 0 0 0
25-08-2018 33.5 (16:40) 15.5 (00:00) 24.5 11.39 (17:00) 5.83 (14:30) 0 0 0 0 0
24-08-2018 34 (18:30) 18 (00:00) 26 9.72 (16:50) 5.28 (17:10) 0 0 0 0 0
23-08-2018 33.8 (17:10) 19.7 (00:00) 26.8 10 (22:30) 5 (22:40) 0 0 0 0 0

Gráficas

Temp. máximas Temp. mínimas Temp. medias Precipitaciones Rachas de viento máximas Velocidades máximas media en intervalos de 10 minutos

Datos horarios

Fecha y hora oficial Temperatura (ºC) Velocidad del viento (km/h) Dirección del viento Racha (km/h) Dirección de racha Precipitación (mm) Presión (hPa) Tendencia (hPa) Humedad (%)
2018-09-21 23:00:00 26.7 7 Oeste 15 Oeste 0 -- -- 37
2018-09-21 22:00:00 27.2 5 Noroeste 9 Noroeste 0 -- -- 37
2018-09-21 21:00:00 27.7 4 Norte 12 Norte 0 -- -- 36
2018-09-21 20:00:00 29.1 6 Norte 13 Noroeste 0 -- -- 34
2018-09-21 19:00:00 30.1 5 Norte 15 Norte 0 -- -- 33
2018-09-21 18:00:00 31.9 5 Norte 20 Norte 0 -- -- 30
2018-09-21 17:00:00 31.1 9 Norte 27 Noroeste 0 -- -- 32
2018-09-21 16:00:00 32.2 6 Sudoeste 13 Oeste 0 -- -- 30
2018-09-21 15:00:00 31.2 9 Noroeste 15 Oeste 0 -- -- 31
2018-09-21 14:00:00 30.7 3 Oeste 14 Noroeste 0 -- -- 33
2018-09-21 13:00:00 29.2 5 Oeste 12 Noroeste 0 -- -- 35
2018-09-21 12:00:00 28.3 4 Noroeste 12 Noroeste 0 -- -- 35
2018-09-21 11:00:00 26.7 6 Norte 13 Noroeste 0 -- -- 38
2018-09-21 10:00:00 25.2 3 Sudeste 6 Sudeste 0 -- -- 43
2018-09-21 09:00:00 21.1 4 Sudeste 8 Sudeste 0 -- -- 54
2018-09-21 08:00:00 18.2 4 Sur 11 Sur 0 -- -- 64
2018-09-21 07:00:00 18.6 3 Sudoeste 10 Sudoeste 0 -- -- 63
2018-09-21 06:00:00 18.4 5 Sudeste 11 Sudeste 0 -- -- 65
2018-09-21 05:00:00 19.7 5 Sur 8 Sur 0 -- -- 61
2018-09-21 04:00:00 19.8 2 Sur 7 Sur 0 -- -- 61
2018-09-21 03:00:00 20.5 4 Sur 8 Sur 0 -- -- 58
2018-09-21 02:00:00 21.2 4 Sur 8 Sudeste 0 -- -- 54
2018-09-21 01:00:00 22 4 Sudeste 10 Sudeste 0 -- -- 52
2018-09-21 00:00:00 22.5 2 Sur 9 Sudoeste 0 -- -- 54
2018-09-20 23:00:00 23.5 6 Sur 13 Oeste 0 -- -- 52
2018-09-20 22:00:00 25 6 Oeste 12 Oeste 0 -- -- 47
2018-09-20 21:00:00 26.4 7 Oeste 29 Sudoeste 0 -- -- 46
2018-09-20 20:00:00 28.7 6 Este 15 Sudoeste 0 -- -- 33
2018-09-20 19:00:00 30.5 2 Sudeste 16 Oeste 0 -- -- 30
2018-09-20 18:00:00 29.2 10 Oeste 21 Oeste 0 -- -- 32
2018-09-20 17:00:00 30.5 6 Sudoeste 18 Sur 0 -- -- 30
2018-09-20 16:00:00 31.9 11 Sudeste 21 Sudeste 0 -- -- 30
2018-09-20 15:00:00 31.6 9 Sudeste 21 Sudoeste 0 -- -- 31
2018-09-20 14:00:00 31.4 5 Sudeste 19 Sur 0 -- -- 32
2018-09-20 13:00:00 29.7 8 Sur 21 Sur 0 -- -- 37
2018-09-20 12:00:00 27.8 9 Sur 18 Sur 0 -- -- 45
2018-09-20 11:00:00 25.2 8 Sur 17 Sur 0 -- -- 53
2018-09-20 10:00:00 22.8 10 Sudeste 19 Sudeste 0 -- -- 60
2018-09-20 09:00:00 20.2 8 Sur 18 Sur 0 -- -- 69
2018-09-20 08:00:00 18.7 10 Sur 17 Sur 0 -- -- 72
2018-09-20 07:00:00 18.5 8 Sur 14 Sur 0 -- -- 72
2018-09-20 06:00:00 18.7 4 Sudeste 12 Sudeste 0 -- -- 65
2018-09-20 05:00:00 19.1 6 Sur 13 Sur 0 -- -- 61
2018-09-20 04:00:00 20.1 8 Sur 14 Sur 0 -- -- 56
2018-09-20 03:00:00 20.1 3 Sur 7 Sudeste 0 -- -- 53
2018-09-20 02:00:00 21.2 4 Sudeste 11 Sur 0 -- -- 52
2018-09-20 01:00:00 21.2 4 Sur 8 Sur 0 -- -- 53
2018-09-20 00:00:00 22 0 Calma 4 Sudeste 0 -- -- 49
2018-09-19 23:00:00 23 0 Calma 6 Sudeste 0 -- -- 46
2018-09-19 22:00:00 24 3 Sur 7 Sur 0 -- -- 45
2018-09-19 21:00:00 26.1 3 Sur 8 Sur 0 -- -- 39
2018-09-19 20:00:00 28.3 3 Sur 12 Sur 0 -- -- 34
2018-09-19 19:00:00 30.1 0 Calma 11 Sudeste 0 -- -- 33
2018-09-19 18:00:00 30.2 3 Este 13 Sudeste 0 -- -- 33
2018-09-19 17:00:00 29.3 3 Sur 11 Sudeste 0 -- -- 35
2018-09-19 16:00:00 28.6 6 Este 16 Nordeste 0 -- -- 38
2018-09-19 15:00:00 29.2 5 Sur 17 Sudeste 0 -- -- 37
2018-09-19 14:00:00 29.7 7 Sudeste 19 Sur 0 -- -- 39
2018-09-19 13:00:00 27.9 3 Norte 10 Este 0 -- -- 44
2018-09-19 12:00:00 26.6 4 Este 12 Sur 0 -- -- 49
2018-09-19 11:00:00 24.5 5 Sudeste 12 Sur 0 -- -- 54
2018-09-19 10:00:00 22.8 6 Sudeste 9 Sur 0 -- -- 62
2018-09-19 09:00:00 18.4 3 Sur 6 Sudoeste 0 -- -- 79
2018-09-19 08:00:00 15.6 3 Sudoeste 6 Sudoeste 0 -- -- 84
2018-09-19 07:00:00 16.1 5 Nordeste 10 Norte 0 -- -- 81
2018-09-19 06:00:00 18.4 0 Calma 12 Sur 0 -- -- 73
2018-09-19 05:00:00 18.7 4 Sur 12 Sudeste 0 -- -- 72
2018-09-19 04:00:00 19.6 7 Sudeste 15 Sudeste 0 -- -- 69
2018-09-19 03:00:00 19.7 5 Sur 17 Sur 0 -- -- 68
2018-09-19 02:00:00 20.6 10 Sur 19 Sur 0 -- -- 63
2018-09-19 01:00:00 20.5 4 Sudeste 9 Sur 0 -- -- 60
2018-09-19 00:00:00 21.2 2 Sur 5 Sur 0 -- -- 60
2018-09-18 23:00:00 21.9 0 Calma 6 Sur 0 -- -- 55
2018-09-18 22:00:00 22.8 2 Noroeste 6 Oeste 0 -- -- 54
2018-09-18 21:00:00 24.5 3 Oeste 16 Noroeste 0 -- -- 49
2018-09-18 20:00:00 26.3 9 Oeste 21 Noroeste 0 -- -- 44
2018-09-18 19:00:00 27.7 8 Noroeste 17 Oeste 0 -- -- 40
2018-09-18 18:00:00 27.6 13 Noroeste 19 Noroeste 0 -- -- 39
2018-09-18 17:00:00 29.6 7 Norte 25 Norte 0 -- -- 38
2018-09-18 16:00:00 29 4 Norte 15 Noroeste 0 -- -- 39
2018-09-18 15:00:00 28.2 8 Noroeste 15 Oeste 0 -- -- 43
2018-09-18 14:00:00 27.3 4 Sur 10 Oeste 0 -- -- 45
2018-09-18 13:00:00 24.4 5 Sudoeste 10 Norte 0 -- -- 54
2018-09-18 12:00:00 23.6 5 Noroeste 12 Norte 0 -- -- 59
2018-09-18 11:00:00 22.9 3 Norte 8 Noroeste 0 -- -- 62
2018-09-18 10:00:00 21.8 3 Nordeste 5 Nordeste 0 -- -- 71
2018-09-18 09:00:00 18.1 3 Norte 5 Noroeste 0 -- -- 82
2018-09-18 08:00:00 16.7 2 Noroeste 6 Nordeste 0 -- -- 86
2018-09-18 07:00:00 17.5 6 Nordeste 10 Nordeste 0 -- -- 83
2018-09-18 06:00:00 18.2 4 Sur 10 Sur 0 -- -- 82
2018-09-18 05:00:00 18.5 5 Sur 14 Este 0 -- -- 81
2018-09-18 04:00:00 18.5 0 Calma 8 Noroeste 0 -- -- 77
2018-09-18 03:00:00 19.1 0 Calma 10 Este 0 -- -- 74
2018-09-18 02:00:00 19.5 7 Nordeste 20 Este 0 -- -- 70
2018-09-18 01:00:00 20.3 9 Sudeste 24 Este 0 -- -- 65
2018-09-18 00:00:00 20.7 9 Sudeste 24 Este 0 -- -- 65
2018-09-17 23:00:00 22.1 10 Nordeste 24 Sur 0 -- -- 58
2018-09-17 22:00:00 22.1 6 Sudoeste 26 Sur 0 -- -- 56
2018-09-17 21:00:00 22.1 16 Sur 27 Sur 0 -- -- 62
2018-09-17 20:00:00 22.8 14 Sur 48 Sudeste 0 -- -- 61
2018-09-17 19:00:00 28.2 13 Sudeste 24 Sudeste 0 -- -- 40
2018-09-17 18:00:00 29.3 8 Este 22 Sudeste 0 -- -- 40
2018-09-17 17:00:00 28.9 12 Sur 29 Sudeste 0 -- -- 42
2018-09-17 16:00:00 30.2 11 Este 20 Nordeste 0 -- -- 39
2018-09-17 15:00:00 29.8 9 Sudeste 17 Sudeste 0 -- -- 40
2018-09-17 14:00:00 29.2 7 Sudeste 18 Sudeste 0 -- -- 41
2018-09-17 13:00:00 27.2 5 Este 15 Sur 0 -- -- 45
2018-09-17 12:00:00 26.6 6 Sudeste 23 Sudeste 0 -- -- 51
2018-09-17 11:00:00 22.6 9 Sudeste 22 Sudeste 0 -- -- 63
2018-09-17 10:00:00 22.8 5 Sudeste 24 Sudeste 0 -- -- 63
2018-09-17 09:00:00 20 14 Sudeste 30 Sudeste 0 -- -- 71
2018-09-17 08:00:00 18.4 6 Sudeste 28 Este 0 -- -- 79
2018-09-17 07:00:00 18.9 10 Sudeste 28 Este 0 -- -- 79
2018-09-17 06:00:00 19.5 14 Sudeste 35 Sudeste 0 -- -- 77
2018-09-17 05:00:00 19.7 16 Sudeste 36 Sudeste 0 -- -- 74
2018-09-17 04:00:00 20.6 14 Sudeste 30 Sudeste 0 -- -- 67
2018-09-17 03:00:00 22.1 11 Sudeste 23 Sudeste 0 -- -- 52
2018-09-17 02:00:00 22.6 5 Sudeste 11 Sudeste 0 -- -- 40
2018-09-17 01:00:00 22.4 4 Sur 6 Sur 0 -- -- 40
2018-09-17 00:00:00 22.1 4 Sur 7 Sur 0 -- -- 42
2018-09-16 23:00:00 23 3 Sur 12 Sudeste 0 -- -- 41
2018-09-16 22:00:00 24.1 0 Calma 4 Sudeste 0 -- -- 40
2018-09-16 21:00:00 26.4 3 Este 12 Este 0 -- -- 34
2018-09-16 20:00:00 28.5 7 Este 19 Nordeste 0 -- -- 30
2018-09-16 19:00:00 29.8 9 Nordeste 18 Este 0 -- -- 29
2018-09-16 18:00:00 30.8 6 Sudeste 24 Este 0 -- -- 30
2018-09-16 17:00:00 30.5 6 Este 22 Este 0 -- -- 32
2018-09-16 16:00:00 29.6 8 Este 15 Este 0 -- -- 35
2018-09-16 15:00:00 28.9 5 Sudeste 15 Este 0 -- -- 36
2018-09-16 14:00:00 27.7 6 Este 22 Sudeste 0 -- -- 39
2018-09-16 13:00:00 26.1 8 Sudeste 20 Sudeste 0 -- -- 45
2018-09-16 12:00:00 25.2 6 Este 12 Nordeste 0 -- -- 53
2018-09-16 11:00:00 22.7 2 Sudoeste 13 Sur 0.2 -- -- 66
2018-09-16 10:00:00 21.7 2 Noroeste 5 Norte 0 -- -- 69
2018-09-16 09:00:00 19.3 0 Calma 7 Sur 0 -- -- 83
2018-09-16 08:00:00 16.3 3 Sudeste 8 Sudeste 0.2 -- -- 92
2018-09-16 07:00:00 16.2 7 Sudeste 12 Sur 0 -- -- 90
2018-09-16 06:00:00 17.3 6 Sudeste 14 Sudeste 0 -- -- 88
2018-09-16 05:00:00 17.6 6 Sur 19 Sudeste 0 -- -- 86
2018-09-16 04:00:00 18.2 9 Sudeste 25 Sudeste 0 -- -- 83
2018-09-16 03:00:00 18.7 11 Sudeste 25 Sudeste 0 -- -- 80
2018-09-16 02:00:00 19.2 12 Sudeste 24 Sudeste 0 -- -- 76
2018-09-16 01:00:00 19.9 12 Sudeste 24 Sudeste 0 -- -- 71
2018-09-16 00:00:00 20.8 9 Sur 18 Sudeste 0 -- -- 63
2018-09-15 23:00:00 21.8 9 Sudeste 31 Este 0 -- -- 54
2018-09-15 22:00:00 22.6 17 Sudeste 30 Sudeste 0 -- -- 54
2018-09-15 21:00:00 23.7 14 Sudeste 30 Sudeste 0 -- -- 52
2018-09-15 20:00:00 25.6 15 Sudeste 30 Sudeste 0 -- -- 46
2018-09-15 19:00:00 28.8 9 Sudeste 21 Este 0 -- -- 39
2018-09-15 18:00:00 27.9 10 Sudeste 28 Este 0 -- -- 40
2018-09-15 17:00:00 28.4 12 Este 27 Sudeste 0 -- -- 39
2018-09-15 16:00:00 27.7 12 Este 25 Este 0 -- -- 43
2018-09-15 15:00:00 27.9 9 Sudeste 26 Sudeste 0 -- -- 43
2018-09-15 14:00:00 27.3 10 Este 27 Este 0 -- -- 47
2018-09-15 13:00:00 25.8 12 Este 27 Este 0 -- -- 50
2018-09-15 12:00:00 24.7 9 Sudeste 22 Este 0 -- -- 59
2018-09-15 11:00:00 23 13 Este 22 Sudeste 0 -- -- 67
2018-09-15 10:00:00 22.8 6 Sudeste 15 Este 0 -- -- 67
2018-09-15 09:00:00 20.1 9 Sudeste 14 Sudeste 0 -- -- 78
2018-09-15 08:00:00 19.1 10 Sudeste 23 Sudeste 0.2 -- -- 83
2018-09-15 07:00:00 19.2 10 Sudeste 20 Sudeste 0.8 -- -- 84
2018-09-15 06:00:00 19.6 6 Sudeste 12 Este 0 -- -- 67
2018-09-15 05:00:00 19.7 5 Este 6 Este 0 -- -- 63
2018-09-15 04:00:00 19.5 2 Noroeste 8 Norte 0 -- -- 65
2018-09-15 03:00:00 20.9 3 Nordeste 13 Oeste 0 -- -- 59
2018-09-15 02:00:00 21.4 5 Sur 10 Sur 0 -- -- 56
2018-09-15 01:00:00 22 4 Sudeste 11 Sudeste 0.2 -- -- 55
2018-09-15 00:00:00 23 7 Sudeste 12 Sudeste 0 -- -- 52
2018-09-14 23:00:00 23.9 6 Sur 15 Sur 0 -- -- 50
2018-09-14 22:00:00 24.7 3 Sudoeste 14 Sudeste 0 -- -- 53
2018-09-14 21:00:00 25.6 3 Nordeste 49 Este 1 -- -- 52
2018-09-14 20:00:00 29.3 4 Sudeste 10 Norte 0 -- -- 32
2018-09-14 19:00:00 30 7 Nordeste 18 Este 0 -- -- 29
2018-09-14 18:00:00 31.1 10 Este 22 Este 0 -- -- 29
2018-09-14 17:00:00 31 11 Nordeste 20 Este 0 -- -- 29
2018-09-14 16:00:00 31.3 8 Nordeste 17 Sudeste 0 -- -- 29
2018-09-14 15:00:00 31.8 5 Nordeste 14 Sudeste 0 -- -- 30
2018-09-14 14:00:00 30.7 6 Oeste 14 Nordeste 0 -- -- 35
2018-09-14 13:00:00 28.3 5 Sudoeste 10 Sudeste 0 -- -- 43
2018-09-14 12:00:00 26.1 3 Norte 7 Norte 0 -- -- 52
2018-09-14 11:00:00 24.7 3 Nordeste 8 Nordeste 0 -- -- 57
2018-09-14 10:00:00 23.2 2 Sudoeste 5 Sudoeste 0 -- -- 64
2018-09-14 09:00:00 18.3 0 Calma 11 Sur 0 -- -- 83
2018-09-14 08:00:00 18.3 7 Sur 15 Sur 0 -- -- 85
2018-09-14 07:00:00 18.6 3 Sur 13 Sur 0 -- -- 83
2018-09-14 06:00:00 19.2 6 Sur 21 Sudeste 0 -- -- 81
2018-09-14 05:00:00 20.1 10 Sudeste 19 Sudeste 0 -- -- 75
2018-09-14 04:00:00 19.7 3 Sudeste 13 Sur 0 -- -- 47
2018-09-14 03:00:00 20.9 6 Sur 11 Sur 0 -- -- 45
2018-09-14 02:00:00 20.2 2 Oeste 7 Sur 0 -- -- 49
2018-09-14 01:00:00 22.3 4 Sur 12 Sudeste 0 -- -- 43
2018-09-14 00:00:00 23 5 Sur 8 Sur 0 -- -- 41
2018-09-13 23:00:00 24.4 3 Sur 6 Sur 0 -- -- 39
2018-09-13 22:00:00 25.8 0 Calma 3 Sudeste 0 -- -- 35
2018-09-13 21:00:00 27.5 0 Calma 7 Norte 0 -- -- 32
2018-09-13 20:00:00 30.6 5 Nordeste 15 Norte 0 -- -- 27
2018-09-13 19:00:00 31.8 7 Noroeste 17 Noroeste 0 -- -- 24
2018-09-13 18:00:00 31.9 6 Sur 26 Norte 0 -- -- 25
2018-09-13 17:00:00 31.7 5 Norte 20 Este 0 -- -- 26
2018-09-13 16:00:00 31.2 5 Sur 21 Oeste 0 -- -- 26
2018-09-13 15:00:00 31 7 Este 20 Norte 0 -- -- 27
2018-09-13 14:00:00 30.5 5 Noroeste 15 Noroeste 0 -- -- 29
2018-09-13 13:00:00 29.6 7 Nordeste 15 Nordeste 0 -- -- 32
2018-09-13 12:00:00 28.5 6 Norte 12 Norte 0 -- -- 35
2018-09-13 11:00:00 27.2 4 Noroeste 6 Noroeste 0 -- -- 40
2018-09-13 10:00:00 25.5 3 Sudeste 9 Sur 0 -- -- 41
2018-09-13 09:00:00 20.9 4 Sur 7 Sur 0 -- -- 51
2018-09-13 08:00:00 16.8 3 Sur 7 Sur 0 -- -- 65
2018-09-13 07:00:00 17.8 5 Sur 8 Sur 0 -- -- 61
2018-09-13 06:00:00 17.5 0 Calma 8 Sur 0 -- -- 64
2018-09-13 05:00:00 18.3 3 Sur 9 Sur 0 -- -- 59
2018-09-13 04:00:00 19.2 4 Sur 6 Sur 0 -- -- 56
2018-09-13 03:00:00 19.4 3 Sur 7 Sur 0 -- -- 58
2018-09-13 02:00:00 20 5 Sur 9 Sur 0 -- -- 55
2018-09-13 01:00:00 20.8 6 Sur 9 Sur 0 -- -- 53
2018-09-13 00:00:00 22.1 5 Sur 10 Sudoeste 0 -- -- 48
2018-09-12 23:00:00 23.2 5 Sur 10 Sur 0 -- -- 43
2018-09-12 22:00:00 24.3 0 Calma 6 Norte 0 -- -- 43
2018-09-12 21:00:00 25.8 3 Nordeste 9 Norte 0 -- -- 36
2018-09-12 20:00:00 28.7 5 Norte 14 Noroeste 0 -- -- 34
2018-09-12 19:00:00 30.6 5 Norte 16 Norte 0 -- -- 30
2018-09-12 18:00:00 29.7 8 Noroeste 21 Noroeste 0 -- -- 33
2018-09-12 17:00:00 29.7 6 Norte 20 Noroeste 0 -- -- 34
2018-09-12 16:00:00 28.8 10 Nordeste 22 Nordeste 0 -- -- 38
2018-09-12 15:00:00 28 8 Noroeste 17 Noroeste 0 -- -- 45
2018-09-12 14:00:00 26.2 4 Norte 11 Este 0 -- -- 56
2018-09-12 13:00:00 24.7 4 Sur 11 Sudeste 0 -- -- 63
2018-09-12 12:00:00 21.8 3 Oeste 9 Nordeste 0 -- -- 75
2018-09-12 11:00:00 19.9 3 Nordeste 9 Nordeste 0 -- -- 83
2018-09-12 10:00:00 18.9 3 Nordeste 9 Sudeste 0 -- -- 86
2018-09-12 09:00:00 18.4 5 Sudeste 10 Sudeste 0 -- -- 88
2018-09-12 08:00:00 17.8 5 Este 12 Nordeste 0 -- -- 90
2018-09-12 07:00:00 17.8 5 Este 15 Este 0 -- -- 92
2018-09-12 06:00:00 17.7 3 Este 15 Sudeste 0 -- -- 91
2018-09-12 05:00:00 17.9 5 Sudeste 18 Sudeste 0 -- -- 89
2018-09-12 04:00:00 18.5 8 Este 20 Sudeste 0 -- -- 87
2018-09-12 03:00:00 19 10 Sudeste 22 Sudeste 0 -- -- 86
2018-09-12 02:00:00 19.4 7 Sudeste 18 Este 0 -- -- 84
2018-09-12 01:00:00 20.1 5 Sur 30 Sudeste 0 -- -- 80
2018-09-12 00:00:00 20.9 12 Este 35 Sudeste 0 -- -- 77
2018-09-11 23:00:00 21.5 14 Este 25 Este 0 -- -- 73
2018-09-11 22:00:00 22.5 14 Este 28 Este 0 -- -- 64
2018-09-11 21:00:00 23.2 11 Sudeste 22 Sudeste 0 -- -- 62
2018-09-11 20:00:00 25.4 13 Sudeste 28 Sudeste 0 -- -- 45
2018-09-11 19:00:00 28 11 Este 23 Este 0 -- -- 40
2018-09-11 18:00:00 28.3 10 Este 28 Este 0 -- -- 40
2018-09-11 17:00:00 28.4 10 Este 31 Nordeste 0 -- -- 41
2018-09-11 16:00:00 27.4 12 Este 28 Este 0 -- -- 42
2018-09-11 15:00:00 26.2 12 Nordeste 28 Este 0 -- -- 44
2018-09-11 14:00:00 24.6 12 Nordeste 27 Este 0 -- -- 50
2018-09-11 13:00:00 23.4 14 Nordeste 28 Nordeste 0 -- -- 53
2018-09-11 12:00:00 22.9 15 Nordeste 26 Este 0 -- -- 55
2018-09-11 11:00:00 21.6 11 Este 22 Este 0 -- -- 61
2018-09-11 10:00:00 19.7 12 Nordeste 21 Este 0 -- -- 72
2018-09-11 09:00:00 17.6 9 Nordeste 21 Este 0 -- -- 80
2018-09-11 08:00:00 17.5 12 Este 24 Este 0 -- -- 80
2018-09-11 07:00:00 17.3 12 Este 28 Este 0 -- -- 81
2018-09-11 06:00:00 17.5 11 Este 30 Este 0 -- -- 83
2018-09-11 05:00:00 17.6 9 Este 31 Este 0 -- -- 82
2018-09-11 04:00:00 18.1 15 Este 33 Este 0 -- -- 79
2018-09-11 03:00:00 18.5 14 Sudeste 32 Este 0 -- -- 78
2018-09-11 02:00:00 19.1 13 Sudeste 32 Sudeste 0 -- -- 74
2018-09-11 01:00:00 19.8 14 Este 31 Este 0 -- -- 68
2018-09-11 00:00:00 20.6 17 Este 28 Este 0 -- -- 67
2018-09-10 23:00:00 21.4 11 Este 23 Sudeste 0 -- -- 63
2018-09-10 22:00:00 21.8 11 Este 22 Este 0 -- -- 61
2018-09-10 21:00:00 22.3 9 Este 23 Este 0.2 -- -- 58
2018-09-10 20:00:00 22.1 12 Este 44 Nordeste 2.6 -- -- 63
2018-09-10 19:00:00 27.1 14 Este 26 Este 0 -- -- 41
2018-09-10 18:00:00 27.5 10 Nordeste 29 Nordeste 0 -- -- 40
2018-09-10 17:00:00 27.1 13 Nordeste 27 Nordeste 0 -- -- 41
2018-09-10 16:00:00 25.3 13 Nordeste 26 Nordeste 0 -- -- 46
2018-09-10 15:00:00 26.2 8 Este 23 Este 0 -- -- 43
2018-09-10 14:00:00 25.4 9 Este 23 Este 0 -- -- 46
2018-09-10 13:00:00 23.8 10 Este 20 Este 0 -- -- 51
2018-09-10 12:00:00 23 9 Nordeste 19 Este 0 -- -- 50
2018-09-10 11:00:00 21.8 10 Nordeste 15 Nordeste 0 -- -- 54
2018-09-10 10:00:00 21.7 3 Sudeste 5 Sudeste 0 -- -- 58
2018-09-10 09:00:00 15.1 0 Calma 9 Sudeste 0.2 -- -- 81
2018-09-10 08:00:00 14.4 4 Sudeste 11 Sur 0 -- -- 83
2018-09-10 07:00:00 14.6 4 Sur 8 Sur 0 -- -- 85
2018-09-10 06:00:00 15.4 0 Calma 15 Sudeste 0 -- -- 79
2018-09-10 05:00:00 16.3 8 Este 24 Nordeste 0 -- -- 73
2018-09-10 04:00:00 16.9 8 Este 24 Este 0 -- -- 71
2018-09-10 03:00:00 17.2 6 Sur 11 Sur 0 -- -- 74
2018-09-10 02:00:00 17.5 8 Sudeste 14 Sur 0 -- -- 74
2018-09-10 01:00:00 18.4 7 Sur 17 Sur 0 -- -- 69
2018-09-10 00:00:00 19.3 7 Sudeste 19 Sudeste 0 -- -- 62
2018-09-09 23:00:00 20.6 6 Sudeste 21 Sur 0 -- -- 55
2018-09-09 22:00:00 21.8 10 Sur 23 Sur 0 -- -- 51
2018-09-09 21:00:00 22 4 Sudeste 7 Sudeste 0 -- -- 57
2018-09-09 20:00:00 22.5 5 Sudoeste 15 Oeste 0 -- -- 56
2018-09-09 19:00:00 23.3 10 Oeste 22 Oeste 0 -- -- 53
2018-09-09 18:00:00 23.4 15 Oeste 27 Noroeste 0 -- -- 54
2018-09-09 17:00:00 24.7 17 Noroeste 25 Noroeste 0 -- -- 49
2018-09-09 16:00:00 25.8 12 Norte 24 Norte 0 -- -- 44
2018-09-09 15:00:00 26.3 11 Norte 21 Nordeste 0 -- -- 46
2018-09-09 14:00:00 26 8 Norte 20 Nordeste 0 -- -- 47
2018-09-09 13:00:00 24.5 9 Nordeste 21 Nordeste 0 -- -- 48
2018-09-09 12:00:00 23.4 9 Nordeste 16 Norte 0 -- -- 53
2018-09-09 11:00:00 21.9 5 Nordeste 10 Nordeste 0 -- -- 63
2018-09-09 10:00:00 19.1 5 Sudoeste 10 Sudoeste 0 -- -- 74
2018-09-09 09:00:00 16 2 Sur 8 Sudoeste 0 -- -- 84
2018-09-09 08:00:00 13.8 3 Sudeste 6 Sudeste 0 -- -- 88
2018-09-09 07:00:00 13.8 4 Sur 8 Sudoeste 0 -- -- 90
2018-09-09 06:00:00 14.5 2 Sur 8 Noroeste 0 -- -- 89
2018-09-09 05:00:00 13.7 3 Noroeste 8 Sudeste 0 -- -- 88
2018-09-09 04:00:00 15.6 6 Sudeste 10 Sur 0 -- -- 83
2018-09-09 03:00:00 16.4 3 Sur 9 Sur 0 -- -- 80
2018-09-09 02:00:00 16.4 4 Sur 9 Sudeste 0 -- -- 80
2018-09-09 01:00:00 16.7 4 Sur 13 Sur 0 -- -- 78
2018-09-09 00:00:00 17.6 7 Sur 16 Sudeste 0 -- -- 72
2018-09-08 23:00:00 18.2 6 Sudeste 10 Sudeste 0 -- -- 69
2018-09-08 22:00:00 19.2 6 Sur 13 Sudoeste 0 -- -- 66
2018-09-08 21:00:00 19.8 6 Sudeste 17 Sur 0.2 -- -- 62
2018-09-08 20:00:00 21.2 9 Sur 17 Sur 0 -- -- 57
2018-09-08 19:00:00 22.2 8 Sur 20 Sur 0 -- -- 60
2018-09-08 18:00:00 22.1 10 Sur 19 Sur 0 -- -- 58
2018-09-08 17:00:00 22.5 11 Sur 24 Sur 0.2 -- -- 60
2018-09-08 16:00:00 20.2 5 Este 50 Sur 2.2 -- -- 76
2018-09-08 15:00:00 25.3 15 Sudeste 28 Sur 0 -- -- 42
2018-09-08 14:00:00 25.7 10 Sudeste 24 Sudeste 0 -- -- 46
2018-09-08 13:00:00 25.3 13 Este 25 Este 0 -- -- 51
2018-09-08 12:00:00 23 11 Este 26 Este 0 -- -- 61
2018-09-08 11:00:00 19.3 10 Este 23 Este 0 -- -- 80
2018-09-08 10:00:00 18.4 6 Este 27 Este 0 -- -- 82
2018-09-08 09:00:00 17.9 7 Nordeste 24 Este 0 -- -- 85
2018-09-08 08:00:00 17.6 10 Este 24 Este 0 -- -- 86
2018-09-08 07:00:00 17.8 5 Este 22 Este 0 -- -- 82
2018-09-08 06:00:00 18.3 9 Este 23 Este 0 -- -- 79
2018-09-08 05:00:00 18.7 12 Sudeste 24 Este 0 -- -- 79
2018-09-08 04:00:00 19.5 13 Este 25 Sudeste 0 -- -- 74
2018-09-08 03:00:00 20.3 13 Sudeste 27 Sudeste 0 -- -- 70
2018-09-08 02:00:00 20.9 14 Sudeste 27 Sudeste 0 -- -- 69
2018-09-08 01:00:00 21.2 12 Sudeste 24 Este 0 -- -- 67
2018-09-08 00:00:00 21.7 12 Sudeste 20 Este 0 -- -- 57
2018-09-07 23:00:00 23 4 Sudeste 12 Este 0 -- -- 29
2018-09-07 22:00:00 23.6 3 Sudeste 9 Sudeste 0 -- -- 33
2018-09-07 21:00:00 25.7 4 Sur 13 Sudeste 0 -- -- 32
2018-09-07 20:00:00 27.7 5 Sur 18 Sudoeste 0 -- -- 30
2018-09-07 19:00:00 28.6 8 Sur 23 Sur 0 -- -- 26
2018-09-07 18:00:00 29.6 9 Sudeste 21 Sudeste 0 -- -- 24
2018-09-07 17:00:00 29 9 Sur 15 Sur 0 -- -- 29
2018-09-07 16:00:00 28.5 5 Sudeste 23 Este 0 -- -- 33
2018-09-07 15:00:00 27.5 9 Este 28 Nordeste 0 -- -- 37
2018-09-07 14:00:00 27.9 12 Este 26 Este 0 -- -- 39
2018-09-07 13:00:00 25.7 8 Este 21 Este 0 -- -- 48
2018-09-07 12:00:00 23.5 9 Este 21 Nordeste 0 -- -- 57
2018-09-07 11:00:00 19.9 10 Nordeste 18 Este 0 -- -- 68
2018-09-07 10:00:00 18.2 5 Norte 10 Norte 0 -- -- 63
2018-09-07 09:00:00 15.5 0 Calma 3 Sur 0 -- -- 68
2018-09-07 08:00:00 13.8 0 Calma 4 Sudoeste 0 -- -- 73
2018-09-07 07:00:00 14.5 0 Calma 3 Sur 0 -- -- 69
2018-09-07 06:00:00 14.5 0 Calma 8 Sudoeste 0 -- -- 72
2018-09-07 05:00:00 15.8 3 Oeste 12 Norte 0 -- -- 67
2018-09-07 04:00:00 16 4 Norte 10 Norte 0 -- -- 65
2018-09-07 03:00:00 15.6 2 Noroeste 5 Oeste 0 -- -- 62
2018-09-07 02:00:00 19 3 Sur 7 Sur 0 -- -- 54
2018-09-07 01:00:00 19.3 0 Calma 6 Nordeste 0 -- -- 51
2018-09-07 00:00:00 20 0 Calma 7 Norte 0 -- -- 47
2018-09-06 23:00:00 21.3 4 Norte 7 Norte 0 -- -- 45
2018-09-06 22:00:00 21.8 4 Noroeste 8 Noroeste 0 -- -- 44
2018-09-06 21:00:00 23.3 5 Norte 19 Norte 0 -- -- 42
2018-09-06 20:00:00 25.8 10 Norte 22 Norte 0 -- -- 36
2018-09-06 19:00:00 27.1 10 Norte 19 Noroeste 0 -- -- 33
2018-09-06 18:00:00 27.4 9 Oeste 31 Oeste 0 -- -- 31
2018-09-06 17:00:00 26.9 9 Oeste 18 Sudoeste 0 -- -- 34
2018-09-06 16:00:00 26 11 Noroeste 21 Noroeste 0 -- -- 37
2018-09-06 15:00:00 25.4 7 Oeste 18 Oeste 0 -- -- 39
2018-09-06 14:00:00 25 8 Oeste 20 Noroeste 0 -- -- 41
2018-09-06 13:00:00 24.2 10 Oeste 17 Oeste 0 -- -- 43
2018-09-06 12:00:00 23.6 4 Sudeste 16 Oeste 0 -- -- 47
2018-09-06 11:00:00 22.5 6 Noroeste 12 Noroeste 0 -- -- 49
2018-09-06 10:00:00 21.9 3 Sur 7 Sudoeste 0 -- -- 50
2018-09-06 09:00:00 18.8 4 Sudeste 9 Sudeste 0 -- -- 57
2018-09-06 08:00:00 15.7 0 Calma 5 Sur 0 -- -- 67
2018-09-06 07:00:00 17.7 3 Sudeste 8 Sudeste 0 -- -- 60
2018-09-06 06:00:00 18 4 Sur 8 Sur 0 -- -- 58
2018-09-06 05:00:00 18 3 Sur 8 Sur 0 -- -- 60
2018-09-06 04:00:00 18.3 4 Sudoeste 8 Sudoeste 0 -- -- 62
2018-09-06 03:00:00 17.9 3 Sur 7 Sur 0 -- -- 63
2018-09-06 02:00:00 18.7 5 Sur 7 Sur 0 -- -- 61
2018-09-06 01:00:00 18.9 3 Sur 6 Sudoeste 0 -- -- 60
2018-09-06 00:00:00 19.8 2 Sudoeste 16 Oeste 0 -- -- 58
2018-09-05 23:00:00 21 9 Oeste 18 Oeste 0 -- -- 55
2018-09-05 22:00:00 22.6 9 Oeste 24 Sudoeste 0 -- -- 46
2018-09-05 21:00:00 23.7 9 Sudoeste 24 Sudoeste 0 -- -- 38
2018-09-05 20:00:00 25.7 15 Sudoeste 28 Sudoeste 0 -- -- 32
2018-09-05 19:00:00 26.7 17 Sudoeste 30 Oeste 0 -- -- 32
2018-09-05 18:00:00 28 13 Sudoeste 26 Sudoeste 0 -- -- 29
2018-09-05 17:00:00 28.2 14 Sudoeste 26 Sur 0 -- -- 29
2018-09-05 16:00:00 26 8 Oeste 21 Sudoeste 0 -- -- 38
2018-09-05 15:00:00 25.8 13 Oeste 23 Sudoeste 0 -- -- 41
2018-09-05 14:00:00 25.3 11 Sudoeste 19 Sudoeste 0 -- -- 42
2018-09-05 13:00:00 25.5 5 Sur 21 Sudoeste 0 -- -- 43
2018-09-05 12:00:00 24.7 6 Oeste 15 Oeste 0 -- -- 45
2018-09-05 11:00:00 23.2 6 Oeste 17 Oeste 0 -- -- 49
2018-09-05 10:00:00 21.8 4 Sudoeste 10 Sudoeste 0 -- -- 54
2018-09-05 09:00:00 19.4 4 Sur 11 Sudeste 0 -- -- 62
2018-09-05 08:00:00 16.5 4 Sudeste 9 Sudeste 0 -- -- 69
2018-09-05 07:00:00 17 4 Sudeste 10 Sur 0 -- -- 64
2018-09-05 06:00:00 18.1 4 Sur 10 Sur 0 -- -- 60
2018-09-05 05:00:00 18 4 Sur 9 Sudoeste 0 -- -- 60
2018-09-05 04:00:00 18.4 3 Sur 9 Sudoeste 0 -- -- 57
2018-09-05 03:00:00 19.8 4 Sur 14 Sudoeste 0 -- -- 55
2018-09-05 02:00:00 20.5 5 Sudoeste 10 Sudoeste 0 -- -- 50
2018-09-05 01:00:00 21.2 3 Sur 8 Sur 0 -- -- 48
2018-09-05 00:00:00 22.4 3 Sudoeste 13 Sudoeste 0 -- -- 45
2018-09-04 23:00:00 23.4 5 Oeste 14 Sudoeste 0 -- -- 39
2018-09-04 22:00:00 25.2 6 Sudoeste 15 Sudoeste 0 -- -- 35
2018-09-04 21:00:00 26.8 6 Sudoeste 18 Sudoeste 0 -- -- 32
2018-09-04 20:00:00 29.1 9 Sudoeste 22 Sur 0 -- -- 29
2018-09-04 19:00:00 30.4 10 Sudoeste 23 Sur 0 -- -- 25
2018-09-04 18:00:00 29.6 5 Sudeste 19 Sur 0 -- -- 29
2018-09-04 17:00:00 30.9 8 Sur 20 Sur 0 -- -- 29
2018-09-04 16:00:00 30.3 6 Sur 16 Sudeste 0 -- -- 31
2018-09-04 15:00:00 29.6 4 Este 13 Noroeste 0 -- -- 33
2018-09-04 14:00:00 27.7 5 Oeste 17 Noroeste 0 -- -- 38
2018-09-04 13:00:00 27.5 5 Norte 16 Nordeste 0 -- -- 39
2018-09-04 12:00:00 26.2 5 Nordeste 13 Nordeste 0 -- -- 45
2018-09-04 11:00:00 25 5 Noroeste 9 Norte 0 -- -- 48
2018-09-04 10:00:00 23.8 2 Sudeste 8 Sur 0 -- -- 50
2018-09-04 09:00:00 20.3 3 Sudeste 8 Sudeste 0 -- -- 56
2018-09-04 08:00:00 17.2 3 Sudoeste 10 Sur 0 -- -- 63
2018-09-04 07:00:00 18.3 3 Sur 6 Sur 0 -- -- 61
2018-09-04 06:00:00 18.9 3 Sur 8 Sur 0 -- -- 60
2018-09-04 05:00:00 19.4 4 Sur 9 Sur 0 -- -- 58
2018-09-04 04:00:00 19.8 5 Sur 9 Sur 0 -- -- 55
2018-09-04 03:00:00 20.3 0 Calma 11 Noroeste 0 -- -- 55
2018-09-04 02:00:00 21.6 0 Calma 7 Sudeste 0 -- -- 51
2018-09-04 01:00:00 22.1 4 Sur 9 Sudoeste 0 -- -- 51
2018-09-04 00:00:00 23.2 4 Sudoeste 16 Sudoeste 0 -- -- 47
2018-09-03 23:00:00 24.9 8 Sudoeste 19 Sudoeste 0 -- -- 43
2018-09-03 22:00:00 26.1 8 Oeste 23 Oeste 0 -- -- 41
2018-09-03 21:00:00 27.6 11 Oeste 18 Oeste 0 -- -- 38
2018-09-03 20:00:00 29.9 10 Sudoeste 29 Sudoeste 0 -- -- 20
2018-09-03 19:00:00 31 15 Sudoeste 28 Sudoeste 0 -- -- 16
2018-09-03 18:00:00 32 19 Sudoeste 34 Sudoeste 0 -- -- 18
2018-09-03 17:00:00 32.6 16 Sudoeste 30 Oeste 0 -- -- 14
2018-09-03 16:00:00 31.9 12 Sudoeste 30 Sur 0 -- -- 19
2018-09-03 15:00:00 31.6 11 Sudoeste 24 Sudoeste 0 -- -- 19
2018-09-03 14:00:00 29.3 11 Sur 26 Sur 0 -- -- 28
2018-09-03 13:00:00 27.7 11 Sur 29 Sudoeste 0 -- -- 40
2018-09-03 12:00:00 27.7 17 Sur 36 Sur 0 -- -- 41
2018-09-03 11:00:00 27.3 13 Sur 23 Sur 0 -- -- 46
2018-09-03 10:00:00 25.1 7 Oeste 12 Sudoeste 0 -- -- 52
2018-09-03 09:00:00 24 3 Sur 10 Oeste 0 -- -- 57
2018-09-03 08:00:00 23.6 6 Sudoeste 15 Sudoeste 0 -- -- 60
2018-09-03 07:00:00 24.1 3 Sudoeste 14 Noroeste 0 -- -- 51
2018-09-03 06:00:00 23.7 5 Este 14 Oeste 0 -- -- 45
2018-09-03 05:00:00 25.1 7 Sur 10 Sur 0 -- -- 37
2018-09-03 04:00:00 25 3 Sur 10 Sudeste 0 -- -- 36
2018-09-03 03:00:00 25.7 4 Sudoeste 16 Sur 0 -- -- 36
2018-09-03 02:00:00 26.2 10 Sur 15 Sur 0 -- -- 34
2018-09-03 01:00:00 26.3 4 Sudeste 13 Sur 0 -- -- 34
2018-09-03 00:00:00 27.4 8 Sudeste 18 Sudeste 0 -- -- 33
2018-09-02 23:00:00 27.9 6 Sudoeste 10 Oeste 0 -- -- 34
2018-09-02 22:00:00 29.2 4 Norte 16 Norte 0 -- -- 33
2018-09-02 21:00:00 30.7 8 Nordeste 19 Norte 0 -- -- 28
2018-09-02 20:00:00 32.7 2 Norte 14 Noroeste 0 -- -- 24
2018-09-02 19:00:00 34.6 6 Noroeste 17 Noroeste 0 -- -- 23
2018-09-02 18:00:00 34.9 11 Noroeste 22 Oeste 0 -- -- 22
2018-09-02 17:00:00 35 13 Oeste 30 Noroeste 0 -- -- 22
2018-09-02 16:00:00 34.6 8 Oeste 23 Oeste 0 -- -- 22
2018-09-02 15:00:00 34.4 12 Noroeste 30 Noroeste 0 -- -- 23
2018-09-02 14:00:00 33.1 9 Oeste 23 Noroeste 0 -- -- 28
2018-09-02 13:00:00 32 12 Noroeste 24 Noroeste 0 -- -- 31
2018-09-02 12:00:00 30.7 4 Este 11 Sur 0 -- -- 38
2018-09-02 11:00:00 28.4 7 Sudeste 21 Sudeste 0 -- -- 44
2018-09-02 10:00:00 24.6 12 Sur 23 Sudeste 0 -- -- 55
2018-09-02 09:00:00 21 12 Sur 26 Sur 0 -- -- 69
2018-09-02 08:00:00 20.3 11 Sur 19 Sur 0 -- -- 71
2018-09-02 07:00:00 21.2 8 Sudeste 22 Sudeste 0 -- -- 67
2018-09-02 06:00:00 22.2 11 Sudeste 23 Sudeste 0 -- -- 64
2018-09-02 05:00:00 22.9 11 Sudeste 22 Este 0 -- -- 61
2018-09-02 04:00:00 23.9 9 Sudeste 17 Este 0 -- -- 54
2018-09-02 03:00:00 24.9 5 Sudeste 10 Sudeste 0 -- -- 40
2018-09-02 02:00:00 25.2 5 Sudeste 13 Sudeste 0 -- -- 40
2018-09-02 01:00:00 25.4 5 Sur 13 Sur 0 -- -- 39
2018-09-02 00:00:00 26.1 0 Calma 5 Sudeste 0 -- -- 37
2018-09-01 23:00:00 26.5 0 Calma 3 Norte 0 -- -- 37
2018-09-01 22:00:00 28.3 0 Calma 9 Nordeste 0 -- -- 34
2018-09-01 21:00:00 30.5 5 Nordeste 13 Nordeste 0 -- -- 31
2018-09-01 20:00:00 32.3 8 Nordeste 13 Nordeste 0 -- -- 29
2018-09-01 19:00:00 32.6 5 Norte 13 Norte 0 -- -- 29
2018-09-01 18:00:00 32.7 12 Nordeste 28 Noroeste 0 -- -- 30
2018-09-01 17:00:00 33.4 8 Este 18 Sudeste 0 -- -- 28
2018-09-01 16:00:00 33.6 7 Nordeste 18 Nordeste 0 -- -- 32
2018-09-01 15:00:00 32.9 5 Nordeste 14 Sudeste 0 -- -- 35
2018-09-01 14:00:00 31.3 6 Nordeste 16 Nordeste 0 -- -- 41
2018-09-01 13:00:00 29 10 Este 26 Este 0 -- -- 49
2018-09-01 12:00:00 27.2 7 Este 17 Nordeste 0 -- -- 54
2018-09-01 11:00:00 25 6 Este 16 Nordeste 0 -- -- 61
2018-09-01 10:00:00 23.6 5 Este 16 Sudeste 0 -- -- 65
2018-09-01 09:00:00 21.2 9 Este 15 Este 0 -- -- 74
2018-09-01 08:00:00 19.8 4 Este 10 Nordeste 0 -- -- 81
2018-09-01 07:00:00 20.1 4 Este 12 Este 0 -- -- 81
2018-09-01 06:00:00 20.5 6 Este 12 Este 0 -- -- 78
2018-09-01 05:00:00 21.3 2 Noroeste 11 Este 0 -- -- 73
2018-09-01 04:00:00 22 4 Este 15 Sudeste 0 -- -- 71
2018-09-01 03:00:00 23.2 5 Sudeste 19 Este 0 -- -- 69
2018-09-01 02:00:00 24.6 9 Sudeste 21 Este 0 -- -- 59
2018-09-01 01:00:00 23.6 3 Noroeste 18 Noroeste 0 -- -- 38
2018-09-01 00:00:00 25.8 0 Calma 4 Sur 0 -- -- 34
2018-08-31 23:00:00 26.6 3 Sur 4 Sur 0 -- -- 32
2018-08-31 22:00:00 27.3 0 Calma 6 Norte 0 -- -- 31
2018-08-31 21:00:00 29.9 5 Norte 19 Nordeste 0 -- -- 28
2018-08-31 20:00:00 32.1 10 Norte 20 Nordeste 0 -- -- 26
2018-08-31 19:00:00 33.3 8 Norte 20 Noroeste 0 -- -- 25
2018-08-31 18:00:00 33.8 12 Noroeste 24 Noroeste 0 -- -- 26
2018-08-31 17:00:00 33.3 10 Noroeste 21 Noroeste 0 -- -- 27
2018-08-31 16:00:00 33.1 8 Sudeste 19 Noroeste 0 -- -- 29
2018-08-31 15:00:00 32.7 5 Noroeste 15 Nordeste 0 -- -- 30
2018-08-31 14:00:00 31.4 7 Norte 18 Norte 0 -- -- 40
2018-08-31 13:00:00 29.8 10 Norte 17 Norte 0 -- -- 45
2018-08-31 12:00:00 28.1 6 Nordeste 13 Nordeste 0 -- -- 51
2018-08-31 11:00:00 27.1 2 Sudeste 10 Norte 0 -- -- 56
2018-08-31 10:00:00 25.4 4 Sudeste 12 Sur 0 -- -- 62
2018-08-31 09:00:00 22.8 5 Sudeste 13 Sur 0 -- -- 73
2018-08-31 08:00:00 20.7 5 Sudeste 10 Sur 0 -- -- 79
2018-08-31 07:00:00 20.8 6 Sur 12 Sur 0 -- -- 77
2018-08-31 06:00:00 20.8 3 Sur 5 Sudeste 0 -- -- 67
2018-08-31 05:00:00 19.7 0 Calma 6 Norte 0 -- -- 62
2018-08-31 04:00:00 22.5 0 Calma 10 Sudeste 0 -- -- 55
2018-08-31 03:00:00 23.7 4 Sur 12 Sur 0 -- -- 51
2018-08-31 02:00:00 24.3 8 Sur 16 Sudeste 0 -- -- 49
2018-08-31 01:00:00 25.3 6 Sur 13 Sudeste 0 -- -- 45
2018-08-31 00:00:00 26.6 5 Sudeste 14 Sudeste 0 -- -- 43
2018-08-30 23:00:00 26.8 0 Calma 5 Norte 0 -- -- 38
2018-08-30 22:00:00 28.2 2 Nordeste 9 Norte 0 -- -- 35
2018-08-30 21:00:00 29.5 7 Norte 13 Noroeste 0 -- -- 32
2018-08-30 20:00:00 31.8 7 Norte 20 Nordeste 0 -- -- 28
2018-08-30 19:00:00 32.6 5 Norte 14 Sudeste 0 -- -- 26
2018-08-30 18:00:00 33.6 6 Sudeste 17 Sudeste 0 -- -- 25
2018-08-30 17:00:00 33 6 Sur 26 Este 0 -- -- 26
2018-08-30 16:00:00 33.1 7 Este 16 Nordeste 0 -- -- 28
2018-08-30 15:00:00 31.6 6 Este 22 Este 0 -- -- 32
2018-08-30 14:00:00 31 9 Sudeste 24 Nordeste 0 -- -- 34
2018-08-30 13:00:00 28.8 12 Este 21 Este 0 -- -- 40
2018-08-30 12:00:00 27.4 11 Este 20 Este 0 -- -- 50
2018-08-30 11:00:00 25.4 9 Este 19 Este 0 -- -- 60
2018-08-30 10:00:00 23.2 10 Este 20 Este 0 -- -- 70
2018-08-30 09:00:00 21.3 8 Este 24 Sudeste 0 -- -- 78
2018-08-30 08:00:00 20 7 Sudeste 23 Sudeste 0 -- -- 82
2018-08-30 07:00:00 20.1 7 Este 25 Sudeste 0 -- -- 80
2018-08-30 06:00:00 20.6 11 Este 26 Este 0 -- -- 76
2018-08-30 05:00:00 21 8 Este 24 Este 0 -- -- 70
2018-08-30 04:00:00 21.8 13 Este 25 Este 0 -- -- 67
2018-08-30 03:00:00 21.3 3 Sur 9 Sudeste 0 -- -- 55
2018-08-30 02:00:00 22.8 4 Sur 11 Este 0 -- -- 52
2018-08-30 01:00:00 24.5 6 Este 18 Este 0 -- -- 28
2018-08-30 00:00:00 23.6 3 Sudoeste 9 Oeste 0 -- -- 29
2018-08-29 23:00:00 24.6 4 Sudoeste 10 Oeste 0 -- -- 28
2018-08-29 22:00:00 26 4 Oeste 10 Noroeste 0 -- -- 27
2018-08-29 21:00:00 27.5 9 Noroeste 22 Norte 0 -- -- 27
2018-08-29 20:00:00 30 12 Norte 23 Noroeste 0 -- -- 27
2018-08-29 19:00:00 31.8 5 Norte 17 Nordeste 0 -- -- 26
2018-08-29 18:00:00 30.6 7 Este 19 Nordeste 0 -- -- 27
2018-08-29 17:00:00 31 6 Norte 27 Norte 0 -- -- 27
2018-08-29 16:00:00 30.4 5 Sudeste 25 Noroeste 0 -- -- 28
2018-08-29 15:00:00 30.9 9 Norte 21 Nordeste 0 -- -- 28
2018-08-29 14:00:00 29.9 7 Nordeste 19 Nordeste 0 -- -- 31
2018-08-29 13:00:00 28.8 6 Norte 19 Norte 0 -- -- 32
2018-08-29 12:00:00 28 8 Norte 17 Norte 0 -- -- 33
2018-08-29 11:00:00 26.9 5 Norte 12 Nordeste 0 -- -- 34
2018-08-29 10:00:00 26.6 0 Calma 6 Sudeste 0 -- -- 36
2018-08-29 09:00:00 22.8 3 Sur 7 Sudeste 0 -- -- 43
2018-08-29 08:00:00 20.4 2 Sur 8 Sur 0 -- -- 48
2018-08-29 07:00:00 21.7 3 Sudoeste 8 Norte 0 -- -- 44
2018-08-29 06:00:00 21.8 3 Nordeste 9 Sudoeste 0 -- -- 44
2018-08-29 05:00:00 22.1 3 Oeste 7 Norte 0 -- -- 41
2018-08-29 04:00:00 22.4 5 Sudoeste 14 Sudoeste 0 -- -- 40
2018-08-29 03:00:00 22.5 6 Sudoeste 14 Sudoeste 0 -- -- 40
2018-08-29 02:00:00 23.6 7 Sudoeste 12 Sudoeste 0 -- -- 39
2018-08-29 01:00:00 24.4 4 Sur 9 Sudoeste 0 -- -- 37
2018-08-29 00:00:00 24.8 5 Sudoeste 13 Oeste 0 -- -- 31
2018-08-28 23:00:00 26.4 7 Oeste 14 Oeste 0 -- -- 28
2018-08-28 22:00:00 28.2 9 Oeste 25 Oeste 0 -- -- 21
2018-08-28 21:00:00 30.2 15 Oeste 27 Oeste 0 -- -- 23
2018-08-28 20:00:00 32.4 15 Sudoeste 30 Oeste 0 -- -- 24
2018-08-28 19:00:00 33.7 15 Sudoeste 34 Sudoeste 0 -- -- 23
2018-08-28 18:00:00 34.3 17 Sudoeste 36 Sudoeste 0 -- -- 23
2018-08-28 17:00:00 34.1 19 Sudoeste 38 Sudoeste 0 -- -- 24
2018-08-28 16:00:00 33.3 15 Sur 40 Sur 0 -- -- 25
2018-08-28 15:00:00 33.6 18 Sudoeste 40 Sur 0 -- -- 24
2018-08-28 14:00:00 32.7 18 Sudoeste 36 Oeste 0 -- -- 25
2018-08-28 13:00:00 31.6 17 Sudoeste 35 Sudoeste 0 -- -- 26
2018-08-28 12:00:00 30.7 19 Sudoeste 32 Sudoeste 0 -- -- 26
2018-08-28 11:00:00 29 18 Sur 36 Sur 0 -- -- 34
2018-08-28 10:00:00 28 13 Sur 23 Sur 0 -- -- 37
2018-08-28 09:00:00 26.3 3 Nordeste 9 Sur 0 -- -- 40
2018-08-28 08:00:00 23.9 5 Sudeste 8 Sudeste 0 -- -- 40
2018-08-28 07:00:00 25 4 Sudeste 20 Sudoeste 0 -- -- 36
2018-08-28 06:00:00 26.7 10 Oeste 26 Noroeste 0 -- -- 33
2018-08-28 05:00:00 26.3 4 Sudoeste 21 Sudoeste 0 -- -- 33
2018-08-28 04:00:00 26.3 8 Sudoeste 19 Sudoeste 0 -- -- 38
2018-08-28 03:00:00 26.5 4 Sudeste 19 Sudeste 0 -- -- 41
2018-08-28 02:00:00 27 12 Sur 22 Sur 0 -- -- 41
2018-08-28 01:00:00 28.1 11 Sur 31 Sudeste 0 -- -- 40
2018-08-28 00:00:00 29.1 12 Sudeste 27 Sudeste 0 -- -- 34
2018-08-27 23:00:00 31 9 Este 23 Este 0 -- -- 23
2018-08-27 22:00:00 31.7 10 Este 17 Nordeste 0 -- -- 23
2018-08-27 21:00:00 31.9 0 Calma 14 Norte 0 -- -- 23
2018-08-27 20:00:00 33.5 7 Norte 18 Noroeste 0 -- -- 22
2018-08-27 19:00:00 34.6 5 Norte 14 Norte 0 -- -- 20
2018-08-27 18:00:00 35.2 9 Oeste 26 Oeste 0 -- -- 18
2018-08-27 17:00:00 36.1 9 Oeste 27 Sudoeste 0 -- -- 19
2018-08-27 16:00:00 36.8 9 Sudeste 24 Sur 0 -- -- 19
2018-08-27 15:00:00 35.7 7 Sudeste 24 Este 0 -- -- 20
2018-08-27 14:00:00 34.8 10 Sudeste 22 Sudeste 0 -- -- 19
2018-08-27 13:00:00 33.1 11 Sudeste 23 Sur 0 -- -- 23
2018-08-27 12:00:00 31 8 Sudeste 17 Sur 0 -- -- 30
2018-08-27 11:00:00 28.3 4 Sudoeste 15 Sudeste 0 -- -- 39
2018-08-27 10:00:00 25.4 9 Sudeste 21 Sudeste 0 -- -- 50
2018-08-27 09:00:00 22.3 8 Sur 16 Sur 0 -- -- 49
2018-08-27 08:00:00 19.1 4 Sur 10 Sur 0 -- -- 36
2018-08-27 07:00:00 19 3 Sudeste 7 Sur 0 -- -- 36
2018-08-27 06:00:00 20.2 3 Sudeste 12 Sur 0 -- -- 33
2018-08-27 05:00:00 19.4 7 Sudeste 12 Sur 0 -- -- 35
2018-08-27 04:00:00 19.8 6 Sur 10 Sudeste 0 -- -- 35
2018-08-27 03:00:00 20.7 4 Sur 8 Sur 0 -- -- 33
2018-08-27 02:00:00 22.7 5 Sur 8 Sur 0 -- -- 29
2018-08-27 01:00:00 23.3 3 Sur 8 Sur 0 -- -- 28
2018-08-27 00:00:00 24.6 4 Sur 8 Sur 0 -- -- 28
2018-08-26 23:00:00 25.9 4 Sudoeste 9 Sudoeste 0 -- -- 27
2018-08-26 22:00:00 27.2 6 Oeste 12 Oeste 0 -- -- 26
2018-08-26 21:00:00 29.8 5 Oeste 15 Noroeste 0 -- -- 22
2018-08-26 20:00:00 32.4 9 Noroeste 23 Oeste 0 -- -- 21
2018-08-26 19:00:00 33.5 10 Oeste 20 Oeste 0 -- -- 20
2018-08-26 18:00:00 33.5 9 Sudoeste 27 Oeste 0 -- -- 20
2018-08-26 17:00:00 33.1 11 Oeste 29 Sudoeste 0 -- -- 21
2018-08-26 16:00:00 32.7 10 Noroeste 24 Noroeste 0 -- -- 22
2018-08-26 15:00:00 32.1 9 Oeste 25 Noroeste 0 -- -- 25
2018-08-26 14:00:00 31.2 6 Noroeste 15 Noroeste 0 -- -- 28
2018-08-26 13:00:00 29.9 3 Sudoeste 9 Norte 0 -- -- 37
2018-08-26 12:00:00 27.6 5 Nordeste 10 Nordeste 0 -- -- 46
2018-08-26 11:00:00 25.8 3 Este 13 Sudeste 0 -- -- 54
2018-08-26 10:00:00 22.8 4 Sur 13 Sudeste 0 -- -- 68
2018-08-26 09:00:00 20 3 Sur 5 Sur 0 -- -- 74
2018-08-26 08:00:00 16 2 Sur 4 Sur 0 -- -- 60
2018-08-26 07:00:00 15 2 Oeste 5 Sudeste 0 -- -- 49
2018-08-26 06:00:00 17.6 3 Sur 5 Sur 0 -- -- 39
2018-08-26 05:00:00 18.2 0 Calma 4 Sur 0 -- -- 36
2018-08-26 04:00:00 17.8 0 Calma 3 Sudeste 0 -- -- 35
2018-08-26 03:00:00 19.2 0 Calma 7 Sur 0 -- -- 32
2018-08-26 02:00:00 21.2 0 Calma 4 Sudoeste 0 -- -- 32
2018-08-26 01:00:00 22.1 2 Oeste 9 Oeste 0 -- -- 28
2018-08-26 00:00:00 22.8 5 Noroeste 10 Noroeste 0 -- -- 26
2018-08-25 23:00:00 25.2 5 Oeste 13 Oeste 0 -- -- 21
2018-08-25 22:00:00 27.1 8 Oeste 16 Noroeste 0 -- -- 18
2018-08-25 21:00:00 29.5 11 Oeste 30 Oeste 0 -- -- 17
2018-08-25 20:00:00 31.1 17 Noroeste 33 Oeste 0 -- -- 17
2018-08-25 19:00:00 32.5 19 Oeste 31 Oeste 0 -- -- 16
2018-08-25 18:00:00 33 16 Oeste 38 Noroeste 0 -- -- 17
2018-08-25 17:00:00 33 19 Oeste 41 Oeste 0 -- -- 18
2018-08-25 16:00:00 33.1 14 Noroeste 34 Oeste 0 -- -- 18
2018-08-25 15:00:00 32.7 15 Noroeste 34 Oeste 0 -- -- 20
2018-08-25 14:00:00 32.2 14 Oeste 30 Oeste 0 -- -- 18
2018-08-25 13:00:00 31.2 4 Noroeste 13 Sur 0 -- -- 25
2018-08-25 12:00:00 29.7 5 Este 11 Sudeste 0 -- -- 31
2018-08-25 11:00:00 27.2 6 Este 10 Este 0 -- -- 42
2018-08-25 10:00:00 24.3 3 Norte 7 Noroeste 0 -- -- 37
2018-08-25 09:00:00 20.7 0 Calma 8 Sur 0 -- -- 42
2018-08-25 08:00:00 15.7 0 Calma 3 Sudeste 0 -- -- 51
2018-08-25 07:00:00 16.2 0 Calma 4 Noroeste 0 -- -- 49
2018-08-25 06:00:00 17.3 2 Nordeste 6 Sur 0 -- -- 44
2018-08-25 05:00:00 19.1 0 Calma 7 Sur 0 -- -- 40
2018-08-25 04:00:00 20.8 3 Sudoeste 7 Sudoeste 0 -- -- 36
2018-08-25 03:00:00 20 3 Nordeste 6 Nordeste 0 -- -- 36
2018-08-25 02:00:00 21.1 3 Sur 10 Sur 0 -- -- 29
2018-08-25 01:00:00 22.6 2 Sudoeste 5 Sudoeste 0 -- -- 27
2018-08-25 00:00:00 24.3 0 Calma 9 Norte 0 -- -- 25
2018-08-24 23:00:00 26 6 Norte 15 Norte 0 -- -- 23
2018-08-24 22:00:00 27.6 9 Norte 15 Norte 0 -- -- 22
2018-08-24 21:00:00 29.7 8 Norte 21 Oeste 0 -- -- 23
2018-08-24 20:00:00 32.8 12 Noroeste 24 Oeste 0 -- -- 18
2018-08-24 19:00:00 33.5 12 Noroeste 31 Oeste 0 -- -- 20
2018-08-24 18:00:00 33.6 11 Noroeste 31 Oeste 0 -- -- 21
2018-08-24 17:00:00 33.4 17 Oeste 35 Oeste 0 -- -- 22
2018-08-24 16:00:00 32.7 14 Noroeste 34 Noroeste 0 -- -- 25
2018-08-24 15:00:00 32.3 10 Noroeste 22 Noroeste 0 -- -- 27
2018-08-24 14:00:00 31.7 9 Norte 19 Nordeste 0 -- -- 29
2018-08-24 13:00:00 30.2 6 Norte 18 Norte 0 -- -- 34
2018-08-24 12:00:00 28.7 6 Norte 14 Nordeste 0 -- -- 35
2018-08-24 11:00:00 27.7 2 Nordeste 8 Noroeste 0 -- -- 39
2018-08-24 10:00:00 25.4 2 Oeste 7 Oeste 0 -- -- 44
2018-08-24 09:00:00 21.4 3 Sur 7 Sudoeste 0 -- -- 53
2018-08-24 08:00:00 18.3 4 Sudoeste 7 Oeste 0 -- -- 61
2018-08-24 07:00:00 19 4 Norte 9 Oeste 0 -- -- 56
2018-08-24 06:00:00 21.1 3 Sudoeste 12 Sur 0 -- -- 52
2018-08-24 05:00:00 21.9 7 Sudeste 12 Sudeste 0 -- -- 51
2018-08-24 04:00:00 21.7 6 Sur 16 Sur 0 -- -- 55
2018-08-24 03:00:00 22.1 6 Sur 21 Sur 0 -- -- 55
2018-08-24 02:00:00 23.3 11 Sur 27 Sudeste 0 -- -- 51
2018-08-24 01:00:00 24.4 12 Sudeste 32 Este 0 -- -- 48
2018-08-24 00:00:00 24.8 9 Sudeste 27 Sur 0 -- -- 44
2018-08-23 23:00:00 25.9 15 Sudeste 36 Sudeste 0 -- -- 40
2018-08-23 22:00:00 27.6 2 Norte 15 Noroeste 0 -- -- 32
2018-08-23 21:00:00 29.6 12 Noroeste 22 Noroeste 0 -- -- 29
2018-08-23 20:00:00 31.7 9 Norte 20 Noroeste 0 -- -- 25
2018-08-23 19:00:00 32.3 12 Noroeste 27 Oeste 0 -- -- 23
2018-08-23 18:00:00 33.3 6 Noroeste 24 Noroeste 0 -- -- 22
2018-08-23 17:00:00 33.6 10 Noroeste 19 Norte 0 -- -- 23
2018-08-23 16:00:00 33.2 5 Nordeste 21 Oeste 0 -- -- 24
2018-08-23 15:00:00 32.3 9 Sudoeste 25 Oeste 0 -- -- 27
2018-08-23 14:00:00 32.1 5 Noroeste 19 Noroeste 0 -- -- 28
2018-08-23 13:00:00 30.9 7 Norte 17 Oeste 0 -- -- 30
2018-08-23 12:00:00 30.2 4 Oeste 14 Sur 0 -- -- 31
2018-08-23 11:00:00 27.6 5 Oeste 10 Oeste 0 -- -- 35
2018-08-23 10:00:00 26.2 4 Sur 9 Sur 0 -- -- 44
2018-08-23 09:00:00 21.3 4 Sudeste 10 Sudeste 0 -- -- 61
2018-08-23 08:00:00 20.2 6 Sur 14 Sur 0 -- -- 61
2018-08-23 07:00:00 20 6 Sur 12 Sur 0 -- -- 63
2018-08-23 06:00:00 19.9 3 Sur 11 Sudeste 0 -- -- 61
2018-08-23 05:00:00 20.4 5 Sur 10 Sur 0 -- -- 62
2018-08-23 04:00:00 20.9 4 Norte 7 Nordeste 0 -- -- 56
2018-08-23 03:00:00 21.5 0 Calma 7 Sudeste 0 -- -- 56
2018-08-23 02:00:00 22.4 4 Sudeste 10 Sudeste 0 -- -- 54
2018-08-23 01:00:00 22.5 4 Sur 15 Sur 0 -- -- 55
2018-08-23 00:00:00 22.7 8 Sur 19 Sudeste 0 -- -- 55